LTBJLTBS

Guest
Details From LTBJ - ADNAN MENDERES
To LTBS - DALAMAN
Flight Number -
Tags generated
Created
Modified
Stats Distance 123 nm / 228 km
Max Altitude 6,400 ft / 1,951 m
Waypoints 3
Social Downloads 7
Likes 0
Share VATSIM

Download

Looking for another format? Having issues loading an existing format? Contact us
Advertisement - Login to hide

Notes

Basic altitude profile: - Ascent Rate: 2500ft/min - Ascent Speed: 250kts - Cruise Altitude: 35000ft - Cruise Speed: 420kts - Descent Rate: 1500ft/min - Descent Speed: 250kts Options: - Use NATs: yes - Use PACOTS: yes - Use low airways: yes - Use high airways: yes

Route

LTBJ KEKIK LTBS

ID Type Via Altitude Latitude Longitude Leg Dist Tot Dist Heading (true) Name
O LTBJ APT - 0 ft / 0 m 38.29221˚ 27.15594˚ - 0 nm - ADNAN MENDERES
KEKIK FIX - 6,400 ft / 1,951 m 37.07889˚ 28.36667˚ 92 nm 92 nm 141° / 142° -
O LTBS APT - 0 ft / 0 m 36.71319˚ 28.79251˚ 30 nm 122 nm 137° / 137° DALAMAN

Altitude Profile

Advertisement - Login to hide

LTBJ

Details ICAO LTBJ (ADB)
Name ADNAN MENDERES
Region Turkey
Timezone Europe/Istanbul (UTC+3.0)
Stats Elevation 412 ft / 126 m (AMSL)
Location 38.292210° 27.155939°
Runways 2
Magnetic Variation 4.896° E

METAR

LTBJ 182250Z VRB02KT 9999 SCT030 BKN100 10/08 Q1016 R162///95 NOSIG

Decode

TAF

Not found

Departure Runways

ID Width Length Bearing (true) Bearing (mag) Surface Threshold Offset Overrun Length
16L 147 ft / 45 m 10,635 ft / 3,242 m 166.78° 161.88° Asphalt 0 ft / 0 m 197 ft / 60 m
16R 147 ft / 45 m 10,651 ft / 3,246 m 166.71° 161.81° Concrete 0 ft / 0 m 197 ft / 60 m
34L 147 ft / 45 m 10,651 ft / 3,246 m 346.72° 341.82° Concrete 0 ft / 0 m 197 ft / 60 m
34R 147 ft / 45 m 10,635 ft / 3,242 m 346.79° 341.89° Asphalt 0 ft / 0 m 197 ft / 60 m

LTBS

Details ICAO LTBS (DLM)
Name DALAMAN
Region Turkey
Timezone Europe/Istanbul (UTC+3.0)
Stats Elevation 20 ft / 6 m (AMSL)
Location 36.713189° 28.792513°
Runways 1
Magnetic Variation 4.881° E

METAR

LTBS 182250Z 06004KT 030V090 9999 SCT025 BKN090 12/10 Q1019 NOSIG

Decode

TAF

Not found

Destination Runways

ID Width Length Bearing (true) Bearing (mag) Surface Threshold Offset Overrun Length
01 148 ft / 45 m 9,851 ft / 3,003 m 15.24° 10.36° Concrete 0 ft / 0 m 197 ft / 60 m
19 148 ft / 45 m 9,851 ft / 3,003 m 195.25° 190.37° Concrete 0 ft / 0 m 197 ft / 60 m

Popular Alternatives